Time;durP1;ratioP1;P1;durP2;ratioP2;P2;SDS_P1;SDS_P2;PMS_P1;PMS_P2;Temp;Humidity;BMP_temperature;BMP_pressure;BME280_temperature;BME280_humidity;BME280_pressure;Samples;Min_cycle;Max_cycle;Signal;HPM_P1;HPM_P2
2022/07/21 00:00:57;;;;;;;19.10;10.02;;;22.20;99.90;;;;;;5088305;28;20496;-65
2022/07/21 00:03:22;;;;;;;19.10;10.23;;;22.20;99.90;;;;;;5088645;28;20035;-65
2022/07/21 00:05:48;;;;;;;17.00;10.55;;;22.10;99.90;;;;;;5089210;28;20036;-65
2022/07/21 00:08:14;;;;;;;16.15;10.55;;;22.00;99.90;;;;;;5088771;28;20040;-64
2022/07/21 00:10:40;;;;;;;16.45;11.32;;;22.00;99.90;;;;;;5071856;28;20043;-64
2022/07/21 00:13:06;;;;;;;20.95;12.27;;;21.80;99.90;;;;;;5069562;28;20040;-64
2022/07/21 00:15:32;;;;;;;17.35;12.50;;;21.80;99.90;;;;;;5068293;28;20040;-66
2022/07/21 00:17:58;;;;;;;19.90;12.80;;;21.70;99.90;;;;;;5088563;28;20135;-64
2022/07/21 00:20:27;;;;;;;23.33;12.98;;;21.60;99.90;;;;;;5087999;28;20032;-66
2022/07/21 00:22:53;;;;;;;21.15;14.30;;;21.60;99.90;;;;;;5084639;28;20119;-65
2022/07/21 00:25:20;;;;;;;15.50;12.65;;;21.50;99.90;;;;;;5064660;28;20111;-63
2022/07/21 00:27:46;;;;;;;21.55;13.85;;;21.50;99.90;;;;;;5070712;28;20040;-64
2022/07/21 00:30:12;;;;;;;18.20;14.85;;;21.50;99.90;;;;;;5087657;28;20046;-65
2022/07/21 00:32:38;;;;;;;20.80;16.38;;;21.50;99.90;;;;;;5088894;28;20032;-64
2022/07/21 00:35:06;;;;;;;18.58;14.73;;;21.50;99.90;;;;;;5071076;28;20346;-64
2022/07/21 00:37:32;;;;;;;20.38;17.13;;;21.50;99.90;;;;;;5089430;28;20039;-64
2022/07/21 00:39:58;;;;;;;21.45;18.45;;;21.60;99.90;;;;;;5088947;28;20062;-64
2022/07/21 00:42:26;;;;;;;21.73;18.23;;;21.60;99.90;;;;;;5087640;28;20425;-64
2022/07/21 00:44:52;;;;;;;23.10;20.10;;;21.60;99.90;;;;;;5086734;28;20036;-64
2022/07/21 00:47:24;;;;;;;22.73;20.13;;;21.50;99.90;;;;;;5089136;28;20387;-63
2022/07/21 00:49:50;;;;;;;27.33;20.10;;;21.50;99.90;;;;;;5088860;28;20032;-63
2022/07/21 00:52:16;;;;;;;26.05;21.73;;;21.50;99.90;;;;;;5088334;28;20123;-63
2022/07/21 00:54:43;;;;;;;24.40;21.02;;;21.50;99.90;;;;;;5068809;28;20219;-63
2022/07/21 00:57:10;;;;;;;25.08;20.90;;;21.40;99.90;;;;;;5084323;28;20040;-63
2022/07/21 00:59:36;;;;;;;26.23;22.08;;;21.40;99.90;;;;;;5089470;28;20426;-63
2022/07/21 01:02:02;;;;;;;27.08;22.38;;;21.50;99.90;;;;;;5086737;28;20040;-63
2022/07/21 01:04:28;;;;;;;28.42;22.90;;;21.40;99.90;;;;;;5088334;28;20063;-63
2022/07/21 01:06:55;;;;;;;25.45;22.75;;;21.40;99.90;;;;;;5085503;28;20499;-64
2022/07/21 01:09:21;;;;;;;26.38;23.42;;;21.30;99.90;;;;;;5088725;28;20519;-64
2022/07/21 01:11:47;;;;;;;28.17;23.42;;;21.30;99.90;;;;;;5090292;28;20032;-64
2022/07/21 01:14:13;;;;;;;27.73;24.92;;;21.30;99.90;;;;;;5086466;28;20165;-64
2022/07/21 01:16:40;;;;;;;28.73;25.10;;;21.30;99.90;;;;;;5086313;28;20107;-64
2022/07/21 01:19:06;;;;;;;28.02;24.65;;;21.30;99.90;;;;;;5088407;28;20539;-62
2022/07/21 01:21:36;;;;;;;28.25;25.23;;;21.20;99.90;;;;;;5060138;28;20049;-66
2022/07/21 01:24:03;;;;;;;30.48;26.98;;;21.20;99.90;;;;;;5044582;28;20501;-65
2022/07/21 01:26:30;;;;;;;30.73;26.58;;;21.10;99.90;;;;;;5044841;28;20494;-64
2022/07/21 01:28:57;;;;;;;33.05;28.65;;;21.10;99.90;;;;;;5048580;28;20037;-64
2022/07/21 01:31:23;;;;;;;29.58;26.63;;;21.10;99.90;;;;;;5048645;28;20056;-65
2022/07/21 01:33:50;;;;;;;32.00;28.55;;;21.10;99.90;;;;;;5048182;28;20033;-64
2022/07/21 01:36:15;;;;;;;32.33;28.90;;;21.10;99.90;;;;;;5044421;28;20393;-65
2022/07/21 01:41:28;;;;;;;34.63;30.23;;;21.10;99.90;;;;;;5043374;28;20078;-65
2022/07/21 01:44:02;;;;;;;35.28;31.52;;;21.00;99.90;;;;;;5046330;28;20319;-65
2022/07/21 01:46:30;;;;;;;34.17;30.58;;;21.00;99.90;;;;;;5029954;28;20049;-65
2022/07/21 01:48:56;;;;;;;35.35;31.25;;;21.00;99.90;;;;;;5047357;28;20024;-64
2022/07/21 01:51:22;;;;;;;33.40;29.85;;;21.00;99.90;;;;;;5048266;28;20044;-64
2022/07/21 01:53:48;;;;;;;35.00;31.20;;;20.90;99.90;;;;;;5045600;28;20042;-65
2022/07/21 01:56:14;;;;;;;36.10;32.38;;;20.90;99.90;;;;;;5045895;28;20055;-64
2022/07/21 01:58:40;;;;;;;33.45;30.15;;;20.90;99.90;;;;;;5046792;28;20068;-64
2022/07/21 02:01:05;;;;;;;34.60;31.13;;;20.80;99.90;;;;;;5046754;28;20044;-63
2022/07/21 02:03:31;;;;;;;35.33;31.50;;;20.90;99.90;;;;;;5046491;28;20037;-64
2022/07/21 02:06:04;;;;;;;35.45;31.77;;;20.90;99.90;;;;;;5051544;28;20041;-64
2022/07/21 02:08:31;;;;;;;34.47;30.77;;;20.90;99.90;;;;;;5051457;28;20033;-64
2022/07/21 02:10:57;;;;;;;33.92;30.27;;;20.80;99.90;;;;;;5049340;28;20061;-65
2022/07/21 02:13:23;;;;;;;35.42;31.80;;;20.80;99.90;;;;;;5049642;28;20539;-65
2022/07/21 02:15:49;;;;;;;33.45;29.85;;;20.80;99.90;;;;;;5048266;28;20045;-65
2022/07/21 02:18:14;;;;;;;34.45;30.83;;;20.70;99.90;;;;;;5050504;28;20040;-62
2022/07/21 02:20:41;;;;;;;34.45;30.95;;;20.80;99.90;;;;;;5052256;28;20071;-62
2022/07/21 02:23:07;;;;;;;33.88;30.17;;;20.80;99.90;;;;;;5082281;28;20041;-61
2022/07/21 02:25:33;;;;;;;34.17;30.67;;;20.70;99.90;;;;;;5090425;28;20040;-63
2022/07/21 02:27:59;;;;;;;34.85;30.98;;;20.80;99.90;;;;;;5088660;28;20107;-61
2022/07/21 02:30:24;;;;;;;35.60;31.17;;;20.80;99.90;;;;;;5093748;28;20652;-63
2022/07/21 02:32:50;;;;;;;34.88;31.33;;;20.80;99.90;;;;;;5091224;28;20043;-61
2022/07/21 02:35:16;;;;;;;36.05;31.02;;;20.80;99.90;;;;;;5073562;28;20071;-61
2022/07/21 02:37:41;;;;;;;34.63;31.02;;;20.80;99.90;;;;;;5086273;28;20036;-61
2022/07/21 02:40:08;;;;;;;35.45;30.80;;;20.80;99.90;;;;;;5091311;28;20449;-62
2022/07/21 02:42:33;;;;;;;34.38;30.90;;;20.80;99.90;;;;;;5090083;28;20032;-63
2022/07/21 02:44:59;;;;;;;34.28;30.55;;;20.80;99.90;;;;;;5088462;28;20028;-62
2022/07/21 02:47:25;;;;;;;33.80;30.30;;;20.70;99.90;;;;;;5073349;28;20048;-62
2022/07/21 02:49:50;;;;;;;33.22;29.85;;;20.70;99.90;;;;;;5091036;28;20078;-62
2022/07/21 02:52:16;;;;;;;32.78;29.42;;;20.70;99.90;;;;;;5090952;28;20032;-62
2022/07/21 02:54:41;;;;;;;33.88;30.38;;;20.70;99.90;;;;;;5088944;28;20043;-62
2022/07/21 02:57:07;;;;;;;31.02;27.70;;;20.70;99.90;;;;;;5086363;28;20040;-62
2022/07/21 02:59:33;;;;;;;30.85;27.75;;;20.70;99.90;;;;;;5091900;28;20465;-63
2022/07/21 03:01:59;;;;;;;30.77;27.58;;;20.70;99.90;;;;;;5088231;28;20055;-64
2022/07/21 03:04:24;;;;;;;31.33;28.02;;;20.70;99.90;;;;;;5090087;28;20058;-63
2022/07/21 03:06:50;;;;;;;30.25;27.10;;;20.60;99.90;;;;;;5091117;28;20138;-62
2022/07/21 03:09:15;;;;;;;29.90;26.80;;;20.60;99.90;;;;;;5090293;28;20028;-63
2022/07/21 03:11:41;;;;;;;29.42;26.38;;;20.60;99.90;;;;;;5072530;28;20445;-63
2022/07/21 03:14:09;;;;;;;26.98;24.30;;;20.50;99.90;;;;;;5087468;28;20045;-63
2022/07/21 03:16:35;;;;;;;26.60;23.88;;;20.40;99.90;;;;;;5088069;28;20115;-63
2022/07/21 03:19:01;;;;;;;26.75;23.85;;;20.40;99.90;;;;;;5090941;28;20174;-64
2022/07/21 03:21:26;;;;;;;24.95;21.95;;;20.30;99.90;;;;;;5090866;28;20120;-63
2022/07/21 03:23:52;;;;;;;26.02;22.90;;;20.30;99.90;;;;;;5070704;28;20051;-63
2022/07/21 03:26:18;;;;;;;25.95;23.08;;;20.30;99.90;;;;;;5069159;28;20261;-64
2022/07/21 03:28:44;;;;;;;24.27;21.85;;;20.30;99.90;;;;;;5090946;28;20046;-63
2022/07/21 03:31:09;;;;;;;22.90;20.50;;;20.40;99.90;;;;;;5074674;28;20435;-63
2022/07/21 03:33:35;;;;;;;23.25;20.75;;;20.40;99.90;;;;;;5089646;28;20123;-64
2022/07/21 03:36:01;;;;;;;23.80;21.27;;;20.40;99.90;;;;;;5088004;28;20116;-63
2022/07/21 03:38:27;;;;;;;25.50;21.52;;;20.40;99.90;;;;;;5086856;28;20483;-63
2022/07/21 03:40:52;;;;;;;22.48;20.17;;;20.40;99.90;;;;;;5090921;28;20439;-63
2022/07/21 03:43:18;;;;;;;24.08;21.15;;;20.40;99.90;;;;;;5069168;28;20047;-63
2022/07/21 03:45:45;;;;;;;23.95;20.98;;;20.40;99.90;;;;;;5071597;28;20031;-64
2022/07/21 03:48:11;;;;;;;23.40;21.00;;;20.40;99.90;;;;;;5086796;28;20395;-63
2022/07/21 03:50:39;;;;;;;23.63;21.13;;;20.40;99.90;;;;;;5072001;28;20111;-63
2022/07/21 03:53:06;;;;;;;23.50;20.85;;;20.40;99.90;;;;;;5073447;28;20450;-65
2022/07/21 03:55:32;;;;;;;26.38;22.00;;;20.30;99.90;;;;;;5069172;28;20338;-63
2022/07/21 03:58:01;;;;;;;23.75;21.25;;;20.20;99.90;;;;;;5069954;28;20044;-64
2022/07/21 04:00:32;;;;;;;25.42;21.40;;;20.20;99.90;;;;;;5086454;28;20054;-63
2022/07/21 04:02:59;;;;;;;25.20;22.70;;;20.20;99.90;;;;;;5070996;28;20119;-64
2022/07/21 04:05:25;;;;;;;25.48;22.88;;;20.20;99.90;;;;;;5089276;28;20071;-64
2022/07/21 04:07:52;;;;;;;25.67;23.02;;;20.20;99.90;;;;;;5089224;28;20031;-64
2022/07/21 04:10:20;;;;;;;24.73;22.10;;;20.20;99.90;;;;;;5089115;28;20032;-64
2022/07/21 04:12:47;;;;;;;26.35;22.50;;;20.20;99.90;;;;;;5067855;28;20624;-65
2022/07/21 04:15:13;;;;;;;27.20;24.42;;;20.10;99.90;;;;;;5090235;28;20044;-65
2022/07/21 04:17:39;;;;;;;26.23;23.52;;;20.10;99.90;;;;;;5068920;28;20044;-64
2022/07/21 04:20:06;;;;;;;26.85;24.00;;;20.10;99.90;;;;;;5071837;28;20043;-63
2022/07/21 04:22:32;;;;;;;26.88;24.08;;;20.10;99.90;;;;;;5087000;28;20044;-62
2022/07/21 04:24:59;;;;;;;28.55;25.50;;;20.10;99.90;;;;;;5087719;28;20463;-63
2022/07/21 04:27:25;;;;;;;26.40;23.75;;;20.10;99.90;;;;;;5087924;28;20399;-63
2022/07/21 04:29:51;;;;;;;28.88;25.60;;;20.10;99.90;;;;;;5070545;28;20105;-62
2022/07/21 04:32:17;;;;;;;27.20;24.45;;;20.20;99.90;;;;;;5070932;28;20460;-64
2022/07/21 04:34:42;;;;;;;28.42;25.60;;;20.20;99.90;;;;;;5071013;28;20032;-63
2022/07/21 04:37:08;;;;;;;27.40;24.60;;;20.20;99.90;;;;;;5066411;28;20118;-63
2022/07/21 04:39:34;;;;;;;26.80;24.02;;;20.20;99.90;;;;;;5080584;28;20067;-66
2022/07/21 04:41:59;;;;;;;26.90;23.38;;;20.20;99.90;;;;;;5087531;28;20032;-63
2022/07/21 04:44:25;;;;;;;25.92;22.80;;;20.20;99.90;;;;;;5083125;28;20051;-64
2022/07/21 04:46:51;;;;;;;25.75;22.77;;;20.30;99.90;;;;;;5087908;28;20425;-65
2022/07/21 04:49:16;;;;;;;24.75;22.13;;;20.30;99.90;;;;;;5068492;28;20444;-64
2022/07/21 04:51:42;;;;;;;25.23;22.73;;;20.30;99.90;;;;;;5088354;28;20059;-64
2022/07/21 04:54:08;;;;;;;25.85;22.67;;;20.30;99.90;;;;;;5086556;28;20626;-64
2022/07/21 04:56:34;;;;;;;23.75;21.45;;;20.50;99.90;;;;;;5089210;28;20047;-64
2022/07/21 04:59:03;;;;;;;24.20;21.80;;;20.60;99.90;;;;;;5067091;28;20032;-65
2022/07/21 05:01:29;;;;;;;24.13;21.25;;;20.80;99.90;;;;;;5048749;28;20054;-64
2022/07/21 05:03:54;;;;;;;23.20;20.80;;;21.00;99.90;;;;;;5085428;28;20129;-64
2022/07/21 05:06:20;;;;;;;22.70;20.38;;;21.40;99.90;;;;;;5086801;28;20125;-64
2022/07/21 05:08:47;;;;;;;22.02;19.80;;;21.90;99.90;;;;;;5068901;28;20042;-64
2022/07/21 05:11:13;;;;;;;22.60;19.33;;;22.20;99.90;;;;;;5067908;28;20037;-65
2022/07/21 05:13:39;;;;;;;21.10;18.90;;;22.20;99.90;;;;;;5073536;28;20523;-64
2022/07/21 05:16:04;;;;;;;20.15;18.15;;;22.20;99.90;;;;;;5083069;28;20032;-64
2022/07/21 05:18:32;;;;;;;20.67;18.50;;;22.10;99.90;;;;;;5079871;28;20099;-64
2022/07/21 05:20:57;;;;;;;19.80;17.67;;;22.00;99.90;;;;;;5060957;28;20111;-66
2022/07/21 05:23:23;;;;;;;21.73;17.55;;;21.70;99.90;;;;;;5060009;28;20127;-65
2022/07/21 05:25:49;;;;;;;19.30;17.02;;;21.50;99.90;;;;;;5068225;28;20109;-64
2022/07/21 05:28:16;;;;;;;19.02;17.02;;;21.20;99.90;;;;;;5083070;28;20381;-63
2022/07/21 05:30:41;;;;;;;18.42;16.52;;;21.10;99.90;;;;;;5085548;28;20043;-64
2022/07/21 05:33:07;;;;;;;18.52;16.73;;;21.10;99.90;;;;;;5070165;28;20040;-63
2022/07/21 05:35:33;;;;;;;19.52;17.10;;;21.10;99.90;;;;;;5070762;28;20036;-65
2022/07/21 05:37:59;;;;;;;21.17;16.52;;;21.10;99.90;;;;;;5088015;28;20101;-64
2022/07/21 05:40:25;;;;;;;19.75;17.65;;;21.20;99.90;;;;;;5092060;28;20097;-64
2022/07/21 05:42:50;;;;;;;17.90;16.20;;;21.40;99.90;;;;;;5086787;28;20417;-63
2022/07/21 05:45:16;;;;;;;18.33;16.45;;;21.60;99.90;;;;;;5092127;28;20123;-64
2022/07/21 05:47:42;;;;;;;19.77;17.63;;;21.90;99.90;;;;;;5086959;28;20490;-63
2022/07/21 05:50:08;;;;;;;20.10;18.00;;;22.10;99.90;;;;;;5083510;28;20522;-65
2022/07/21 05:52:34;;;;;;;19.80;17.80;;;22.10;99.90;;;;;;5081344;28;20136;-66
2022/07/21 05:55:00;;;;;;;20.65;18.45;;;22.00;99.90;;;;;;5070948;28;20106;-65
2022/07/21 05:57:26;;;;;;;20.83;18.73;;;21.90;99.90;;;;;;5087309;28;20106;-65
2022/07/21 05:59:52;;;;;;;22.55;20.02;;;21.70;99.90;;;;;;5088251;28;20033;-64
2022/07/21 06:02:18;;;;;;;21.67;19.13;;;21.60;99.90;;;;;;5088793;28;20135;-63
2022/07/21 06:04:43;;;;;;;21.10;18.85;;;21.40;99.90;;;;;;5074077;28;20070;-63
2022/07/21 06:07:09;;;;;;;20.65;18.52;;;21.20;99.90;;;;;;5092198;28;20032;-64
2022/07/21 06:09:35;;;;;;;21.75;19.17;;;21.10;99.90;;;;;;5071248;28;20596;-64
2022/07/21 06:12:01;;;;;;;22.77;20.35;;;21.10;99.90;;;;;;5090614;28;20033;-64
2022/07/21 06:14:26;;;;;;;21.42;19.27;;;21.10;99.90;;;;;;5091236;28;20477;-64
2022/07/21 06:16:52;;;;;;;22.27;19.95;;;21.10;99.90;;;;;;5082410;28;20085;-64
2022/07/21 06:19:18;;;;;;;22.08;19.63;;;21.10;99.90;;;;;;5076390;28;20044;-65
2022/07/21 06:21:44;;;;;;;23.80;21.27;;;21.00;99.90;;;;;;5073710;28;20055;-66
2022/07/21 06:24:11;;;;;;;22.17;19.80;;;20.90;99.90;;;;;;5071940;28;20048;-66
2022/07/21 06:26:38;;;;;;;24.48;21.67;;;20.90;99.90;;;;;;5071784;28;20408;-65
2022/07/21 06:29:04;;;;;;;22.65;20.25;;;21.10;99.90;;;;;;5074622;28;20495;-64
2022/07/21 06:31:30;;;;;;;23.83;21.42;;;21.10;99.90;;;;;;5074679;28;20510;-64
2022/07/21 06:33:55;;;;;;;22.33;19.73;;;21.20;99.90;;;;;;5073711;28;20266;-65
2022/07/21 06:36:21;;;;;;;24.20;21.65;;;21.20;99.90;;;;;;5073407;28;20047;-64
2022/07/21 06:38:47;;;;;;;24.70;21.83;;;21.30;99.90;;;;;;5083757;28;20444;-65
2022/07/21 06:41:12;;;;;;;25.40;22.38;;;21.40;99.90;;;;;;5071289;28;20043;-65
2022/07/21 06:43:39;;;;;;;25.25;22.65;;;21.30;99.90;;;;;;5069592;28;20051;-65
2022/07/21 06:46:05;;;;;;;28.17;23.30;;;21.30;99.90;;;;;;5066385;28;20098;-64
2022/07/21 06:48:30;;;;;;;26.35;23.45;;;21.30;99.90;;;;;;5067547;28;20041;-64
2022/07/21 06:50:57;;;;;;;26.02;23.10;;;21.30;99.90;;;;;;5084763;28;20036;-63
2022/07/21 06:53:23;;;;;;;27.10;24.27;;;21.30;99.90;;;;;;5065639;28;20381;-65
2022/07/21 06:55:52;;;;;;;27.35;24.33;;;21.30;99.90;;;;;;5063596;28;20068;-65
2022/07/21 06:58:21;;;;;;;28.98;25.77;;;21.30;99.90;;;;;;5065211;28;20103;-63
2022/07/21 07:00:48;;;;;;;28.85;25.02;;;21.40;99.90;;;;;;5066439;28;20131;-64
2022/07/21 07:03:15;;;;;;;28.00;24.98;;;21.40;99.90;;;;;;5049251;28;20067;-65
2022/07/21 07:05:43;;;;;;;31.60;26.42;;;21.40;99.90;;;;;;5063448;28;20032;-64
2022/07/21 07:08:09;;;;;;;30.95;26.65;;;21.50;99.90;;;;;;5065735;28;20059;-64
2022/07/21 07:10:35;;;;;;;28.00;25.08;;;21.40;99.90;;;;;;5066643;28;20122;-65
2022/07/21 07:13:01;;;;;;;30.95;26.02;;;21.50;99.90;;;;;;5062919;28;20036;-65
2022/07/21 07:15:28;;;;;;;32.10;27.98;;;21.50;99.90;;;;;;5065987;28;20138;-63
2022/07/21 07:17:54;;;;;;;32.55;29.02;;;21.40;99.90;;;;;;5066852;28;20040;-65
2022/07/21 07:20:21;;;;;;;32.70;27.73;;;21.40;99.90;;;;;;5066595;28;20039;-64
2022/07/21 07:22:47;;;;;;;32.95;27.70;;;21.40;99.90;;;;;;5064496;28;20128;-64
2022/07/21 07:25:17;;;;;;;31.23;27.52;;;21.40;99.90;;;;;;5061579;28;20214;-64
2022/07/21 07:27:51;;;;;;;30.85;27.42;;;21.50;99.90;;;;;;5050098;28;20098;-64
2022/07/21 07:30:18;;;;;;;31.50;27.55;;;21.50;99.90;;;;;;5061889;28;20044;-66
2022/07/21 07:32:46;;;;;;;31.13;26.55;;;21.50;99.90;;;;;;5038274;28;20423;-65
2022/07/21 07:35:13;;;;;;;30.88;27.25;;;21.50;99.90;;;;;;5064220;28;20048;-64
2022/07/21 07:37:41;;;;;;;31.52;28.08;;;21.60;99.90;;;;;;5062118;28;20044;-65
2022/07/21 07:40:10;;;;;;;30.75;27.45;;;21.60;99.90;;;;;;5080140;28;20040;-63
2022/07/21 07:42:37;;;;;;;31.15;27.85;;;21.70;99.90;;;;;;5066101;28;20043;-64
2022/07/21 07:45:05;;;;;;;31.15;27.75;;;21.80;99.90;;;;;;5064277;28;20050;-64
2022/07/21 07:47:31;;;;;;;34.97;29.17;;;21.80;99.90;;;;;;5046442;28;20102;-63
2022/07/21 07:49:58;;;;;;;33.25;28.10;;;21.80;99.90;;;;;;5061495;28;20050;-64
2022/07/21 07:52:24;;;;;;;35.22;30.77;;;21.90;99.90;;;;;;5083317;28;20369;-64
2022/07/21 07:54:50;;;;;;;39.25;32.83;;;21.90;99.90;;;;;;5063399;28;20044;-64
2022/07/21 07:57:16;;;;;;;41.55;33.30;;;22.00;99.90;;;;;;5062007;28;20094;-65
2022/07/21 07:59:42;;;;;;;40.83;32.97;;;22.10;99.90;;;;;;5064152;28;20033;-63
2022/07/21 08:02:07;;;;;;;39.75;35.33;;;22.10;99.90;;;;;;5044651;28;20036;-64
2022/07/21 08:04:35;;;;;;;40.92;34.40;;;22.10;99.90;;;;;;5083485;28;20093;-64
2022/07/21 08:07:03;;;;;;;40.17;34.85;;;22.30;99.90;;;;;;5064228;28;20170;-64
2022/07/21 08:09:29;;;;;;;40.38;34.60;;;22.40;99.90;;;;;;5064341;28;20127;-64
2022/07/21 08:11:55;;;;;;;41.10;33.92;;;22.50;99.90;;;;;;5063737;28;20035;-65
2022/07/21 08:14:21;;;;;;;36.88;32.80;;;22.50;99.90;;;;;;5063185;28;20178;-64
2022/07/21 08:16:47;;;;;;;37.08;31.98;;;22.40;99.90;;;;;;5063753;28;20056;-64
2022/07/21 08:19:13;;;;;;;36.97;32.25;;;22.40;99.90;;;;;;5045641;28;20711;-64
2022/07/21 08:21:39;;;;;;;36.00;32.10;;;22.40;99.90;;;;;;5064532;28;20155;-64
2022/07/21 08:24:05;;;;;;;34.05;30.25;;;22.40;99.90;;;;;;5065273;28;20357;-63
2022/07/21 08:26:30;;;;;;;37.85;32.05;;;22.50;99.90;;;;;;5062699;28;20113;-63
2022/07/21 08:28:57;;;;;;;36.50;31.02;;;22.70;99.90;;;;;;5049852;28;20491;-65
2022/07/21 08:31:24;;;;;;;35.05;30.02;;;22.80;99.90;;;;;;5064105;28;20166;-63
2022/07/21 08:33:51;;;;;;;34.78;28.90;;;22.80;99.90;;;;;;5059156;28;20122;-63
2022/07/21 08:36:17;;;;;;;33.50;28.42;;;23.00;99.90;;;;;;5062447;28;20040;-63
2022/07/21 08:38:43;;;;;;;32.75;28.08;;;23.20;99.90;;;;;;5049412;28;20047;-63
2022/07/21 08:41:09;;;;;;;34.25;27.65;;;23.40;99.90;;;;;;5050009;28;20040;-63
2022/07/21 08:43:35;;;;;;;30.50;26.92;;;23.60;99.90;;;;;;5065494;28;20036;-63
2022/07/21 08:46:02;;;;;;;29.60;26.33;;;23.70;99.90;;;;;;5064826;28;20046;-63
2022/07/21 08:48:29;;;;;;;30.45;26.02;;;23.80;99.90;;;;;;5046828;28;20495;-64
2022/07/21 08:50:56;;;;;;;32.28;27.90;;;24.10;99.90;;;;;;5068682;28;20776;-64
2022/07/21 08:53:23;;;;;;;31.38;27.60;;;24.20;99.90;;;;;;5067277;28;20052;-63
2022/07/21 08:55:49;;;;;;;30.42;26.65;;;24.50;99.90;;;;;;5062974;28;20119;-63
2022/07/21 08:58:15;;;;;;;32.40;26.70;;;24.60;99.90;;;;;;5053635;28;20148;-63
2022/07/21 09:00:47;;;;;;;31.05;26.85;;;24.60;99.90;;;;;;5061575;28;20036;-63
2022/07/21 09:03:24;;;;;;;29.00;24.42;;;24.70;99.90;;;;;;5056520;28;20075;-63
2022/07/21 09:06:04;;;;;;;27.83;24.92;;;24.90;99.90;;;;;;5058560;28;20435;-63
2022/07/21 09:08:34;;;;;;;30.13;26.85;;;24.90;99.90;;;;;;5070434;28;20032;-63
2022/07/21 09:11:26;;;;;;;30.40;25.52;;;24.90;99.90;;;;;;5059102;28;20050;-63
2022/07/21 09:14:10;;;;;;;28.42;25.17;;;24.80;99.90;;;;;;5074026;28;20086;-63
2022/07/21 09:16:43;;;;;;;29.42;26.27;;;24.90;99.90;;;;;;5066750;28;20052;-63
2022/07/21 09:19:15;;;;;;;29.80;25.48;;;24.80;99.90;;;;;;5068616;28;20052;-65
2022/07/21 09:21:41;;;;;;;28.13;25.15;;;24.80;99.90;;;;;;5064189;28;20056;-65
2022/07/21 09:24:20;;;;;;;27.83;23.92;;;24.80;99.90;;;;;;5067692;28;20041;-63
2022/07/21 09:27:07;;;;;;;28.30;22.60;;;24.70;99.90;;;;;;5064576;28;20094;-64
2022/07/21 09:29:45;;;;;;;30.08;22.20;;;24.70;99.90;;;;;;5068430;28;20094;-63
2022/07/21 09:32:18;;;;;;;23.67;21.10;;;24.60;99.90;;;;;;5050878;28;20464;-64
2022/07/21 09:34:50;;;;;;;24.45;21.35;;;24.60;99.90;;;;;;5063419;28;20032;-65
2022/07/21 09:37:17;;;;;;;26.95;24.00;;;24.40;99.90;;;;;;5058227;28;20369;-63
2022/07/21 09:39:48;;;;;;;30.13;25.70;;;24.60;99.90;;;;;;5062317;28;20036;-63
2022/07/21 09:42:18;;;;;;;30.67;27.35;;;24.40;99.90;;;;;;5064059;28;20473;-63
2022/07/21 09:44:53;;;;;;;32.53;27.58;;;24.50;99.90;;;;;;5061826;28;20131;-64
2022/07/21 09:47:21;;;;;;;28.98;25.92;;;24.30;99.90;;;;;;5068185;28;20044;-63
2022/07/21 09:49:47;;;;;;;31.42;27.88;;;24.30;99.90;;;;;;5080473;28;20033;-64
2022/07/21 09:52:31;;;;;;;30.70;27.42;;;24.30;99.90;;;;;;5063328;28;20082;-63
2022/07/21 09:54:58;;;;;;;;;;;24.30;99.90;;;;;;5064173;28;20104;-63
2022/07/21 09:57:24;;;;;;;33.00;29.40;;;24.30;99.90;;;;;;5063742;28;20301;-64
2022/07/21 09:59:50;;;;;;;34.45;30.77;;;24.20;99.90;;;;;;5083069;28;20124;-64
2022/07/21 10:02:20;;;;;;;35.38;31.65;;;24.10;99.90;;;;;;5064093;28;20476;-63
2022/07/21 10:04:51;;;;;;;34.42;30.80;;;24.00;99.90;;;;;;5058537;28;20051;-63
2022/07/21 10:07:18;;;;;;;35.42;31.55;;;23.90;99.90;;;;;;5062549;28;20115;-64
2022/07/21 10:09:44;;;;;;;33.35;29.73;;;23.90;99.90;;;;;;5060654;28;20044;-63
2022/07/21 10:12:10;;;;;;;35.78;32.08;;;23.80;99.90;;;;;;5061453;28;20094;-64
2022/07/21 10:14:36;;;;;;;32.95;29.52;;;23.80;99.90;;;;;;5063116;28;20073;-63
2022/07/21 10:17:02;;;;;;;31.40;28.02;;;23.70;99.90;;;;;;5059687;28;20373;-64
2022/07/21 10:19:32;;;;;;;34.35;29.85;;;23.80;99.90;;;;;;5079353;28;20400;-62
2022/07/21 10:22:35;;;;;;;30.90;27.58;;;23.80;99.90;;;;;;5058230;28;20052;-62
2022/07/21 10:25:01;;;;;;;30.90;27.30;;;23.70;99.90;;;;;;5078404;28;20043;-62
2022/07/21 10:27:27;;;;;;;31.50;27.25;;;23.60;99.90;;;;;;5082463;28;20422;-63
2022/07/21 10:30:00;;;;;;;32.40;27.27;;;23.50;99.90;;;;;;5084290;28;20106;-62
2022/07/21 10:32:37;;;;;;;30.92;26.42;;;23.50;99.90;;;;;;5077158;28;20445;-63
2022/07/21 10:35:30;;;;;;;29.35;26.35;;;23.50;99.90;;;;;;5039446;28;20151;-62
2022/07/21 10:37:57;;;;;;;31.10;27.80;;;23.40;99.90;;;;;;5070028;28;20060;-63
2022/07/21 10:40:22;;;;;;;29.38;26.02;;;23.30;99.90;;;;;;5074148;28;20047;-62
2022/07/21 10:43:23;;;;;;;28.23;24.70;;;23.30;99.90;;;;;;5055490;28;20466;-63
2022/07/21 10:45:50;;;;;;;27.15;22.80;;;23.40;99.90;;;;;;5044145;28;20381;-62
2022/07/21 10:48:47;;;;;;;29.45;22.48;;;23.40;99.90;;;;;;5073668;28;20036;-64
2022/07/21 10:51:15;;;;;;;23.00;20.63;;;23.50;99.90;;;;;;5073176;28;20460;-62
2022/07/21 10:53:44;;;;;;;24.30;20.23;;;23.50;99.90;;;;;;5077295;28;20044;-63
2022/07/21 10:56:28;;;;;;;25.48;19.80;;;23.50;99.90;;;;;;5077053;28;20090;-62
2022/07/21 10:58:55;;;;;;;24.45;21.83;;;23.50;99.90;;;;;;5063498;28;20058;-62
2022/07/21 11:01:25;;;;;;;24.73;21.00;;;23.60;99.90;;;;;;5077585;28;20043;-62
2022/07/21 11:04:10;;;;;;;24.67;20.33;;;23.70;99.90;;;;;;5087621;28;20037;-62
2022/07/21 11:06:38;;;;;;;21.88;19.55;;;23.60;99.90;;;;;;5063594;28;20036;-63
2022/07/21 11:09:03;;;;;;;21.30;19.00;;;23.50;99.90;;;;;;5089002;28;20069;-62
2022/07/21 11:11:31;;;;;;;21.65;19.33;;;23.40;99.90;;;;;;5086699;28;20040;-62
2022/07/21 11:14:10;;;;;;;20.63;18.05;;;23.40;99.90;;;;;;5085541;28;20035;-62
2022/07/21 11:17:03;;;;;;;19.33;17.30;;;23.50;99.90;;;;;;5087524;28;20139;-63
2022/07/21 11:19:46;;;;;;;17.70;14.07;;;23.40;99.90;;;;;;5064273;28;20143;-62
2022/07/21 11:22:18;;;;;;;17.83;14.73;;;23.50;99.90;;;;;;5084102;28;20044;-62
2022/07/21 11:25:05;;;;;;;17.42;15.50;;;23.40;99.90;;;;;;5081040;28;20082;-63
2022/07/21 11:27:34;;;;;;;16.95;15.00;;;23.30;99.90;;;;;;5083152;28;20044;-62
2022/07/21 11:30:06;;;;;;;16.13;13.57;;;23.30;99.90;;;;;;5083915;28;20079;-63
2022/07/21 11:32:31;;;;;;;12.77;10.75;;;23.00;99.90;;;;;;5064402;28;20202;-62
2022/07/21 11:35:03;;;;;;;9.07;8.10;;;22.70;99.90;;;;;;5084182;28;20123;-65
2022/07/21 11:37:35;;;;;;;8.63;7.72;;;22.50;99.90;;;;;;5084188;28;20054;-63
2022/07/21 11:40:12;;;;;;;9.50;7.70;;;22.30;99.90;;;;;;5080601;28;20320;-62
2022/07/21 11:42:38;;;;;;;10.00;8.20;;;22.20;99.90;;;;;;5062952;28;20032;-63
2022/07/21 11:45:06;;;;;;;12.20;8.52;;;22.00;99.90;;;;;;5083981;28;20462;-63
2022/07/21 11:47:31;;;;;;;11.52;9.43;;;21.90;99.90;;;;;;5066339;28;20048;-62
2022/07/21 11:50:20;;;;;;;10.85;9.75;;;21.80;99.90;;;;;;5048626;28;20435;-63
2022/07/21 11:52:46;;;;;;;13.82;12.43;;;21.80;99.90;;;;;;5064730;28;20106;-61
2022/07/21 11:55:12;;;;;;;14.13;12.45;;;21.80;99.90;;;;;;5079402;28;20036;-62
2022/07/21 11:57:43;;;;;;;14.40;12.90;;;21.80;99.90;;;;;;5064198;28;20427;-63
2022/07/21 12:00:09;;;;;;;15.70;14.10;;;21.70;99.90;;;;;;5082533;28;20024;-62
2022/07/21 12:02:35;;;;;;;15.70;13.93;;;21.70;99.90;;;;;;5081314;28;20364;-62
2022/07/21 12:05:03;;;;;;;17.25;15.45;;;21.80;99.90;;;;;;5082987;28;20127;-63
2022/07/21 12:07:51;;;;;;;16.92;14.88;;;21.90;99.90;;;;;;5083493;28;20113;-63
2022/07/21 12:10:26;;;;;;;16.27;14.55;;;21.80;99.90;;;;;;5083604;28;20124;-63
2022/07/21 12:12:57;;;;;;;16.67;14.70;;;21.70;99.90;;;;;;5081393;28;20372;-63
2022/07/21 12:15:28;;;;;;;25.90;18.35;;;21.70;99.90;;;;;;5064196;28;20465;-63
2022/07/21 12:17:56;;;;;;;13.95;12.00;;;21.60;99.90;;;;;;5083376;28;20665;-62
2022/07/21 12:20:25;;;;;;;11.70;8.48;;;21.40;99.90;;;;;;5080812;28;20113;-62
2022/07/21 12:22:51;;;;;;;8.02;6.25;;;21.10;99.90;;;;;;5081019;28;20419;-62
2022/07/21 12:25:29;;;;;;;8.70;5.93;;;21.00;99.90;;;;;;5063109;28;20078;-61
2022/07/21 12:27:56;;;;;;;6.47;5.38;;;20.90;99.90;;;;;;5079843;28;20048;-62
2022/07/21 12:30:33;;;;;;;7.32;5.55;;;20.90;99.90;;;;;;5084601;28;20044;-61
2022/07/21 12:33:14;;;;;;;5.60;4.57;;;20.80;99.90;;;;;;5081128;28;20041;-62
2022/07/21 12:35:48;;;;;;;6.28;5.43;;;20.80;99.90;;;;;;5082671;28;20051;-62